Home > Products > Valid Products > TAF

000
FTUS41 KRNK 020958 AAA
TAFBLF
TAF AMD
KBLF 020958Z 0210/0306 27009KT P6SM VCSH BKN012 OVC040
      TEMPO 0210/0213 OVC007
     FM021800 26007KT P6SM -SHRA SCT025 BKN035
      TEMPO 0218/0222 3SM -TSRA OVC020CB
     FM022200 VRB03KT 5SM BR VCTS OVC020CB=



000
FTUS41 KRNK 020958 AAA
TAFBLF
TAF AMD
KBLF 020958Z 0210/0306 27009KT P6SM VCSH BKN012 OVC040
      TEMPO 0210/0213 OVC007
     FM021800 26007KT P6SM -SHRA SCT025 BKN035
      TEMPO 0218/0222 3SM -TSRA OVC020CB
     FM022200 VRB03KT 5SM BR VCTS OVC020CB=



000
FTUS41 KRNK 020529
TAFBLF
TAF
KBLF 020529Z 0206/0306 27009KT P6SM VCSH SCT030 OVC070
     FM021000 27008KT P6SM VCSH BKN012 OVC040
     FM021800 26007KT P6SM -SHRA SCT025 BKN035
      TEMPO 0218/0222 3SM -TSRA OVC020CB
     FM022200 VRB03KT 5SM BR VCTS OVC020CB=



000
FTUS41 KRNK 020529
TAFDAN
TAF
KDAN 020529Z 0206/0306 23004KT P6SM VCSH SCT040 OVC070
     FM021000 VRB03KT P6SM VCSH BKN025 OVC040
     FM021500 25007KT P6SM VCSH SCT030 BKN040
     FM022100 24008KT P6SM -SHRA SCT025 BKN035
      TEMPO 0221/0301 3SM -TSRA OVC020CB
     FM030100 25004KT P6SM VCTS OVC050CB=



000
FTUS41 KRNK 020529
TAFLYH
TAF
KLYH 020529Z 0206/0306 00000KT P6SM VCSH SCT040 OVC070
     FM021000 VRB03KT P6SM VCSH BKN025 OVC040
     FM021500 24004KT P6SM VCSH SCT030 BKN040
     FM022100 23005KT P6SM -SHRA SCT025 BKN035
      TEMPO 0221/0301 3SM -TSRA OVC020CB
     FM030100 VRB03KT P6SM VCTS OVC050CB=



000
FTUS41 KRNK 020529
TAFLWB
TAF
KLWB 020529Z 0206/0306 00000KT 4SM BR VCSH SCT030 OVC070
      TEMPO 0206/0210 2SM -SHRA BR OVC025
     FM021000 VRB03KT P6SM VCSH BKN015 OVC040
     FM021800 27006KT P6SM -SHRA SCT025 BKN035
      TEMPO 0218/0222 3SM -TSRA OVC020CB
     FM022200 VRB03KT 5SM BR VCTS OVC020CB=



000
FTUS41 KRNK 020529
TAFBLF
TAF
KBLF 020529Z 0206/0306 27009KT P6SM VCSH SCT030 OVC070
     FM021000 27008KT P6SM VCSH BKN012 OVC040
     FM021800 26007KT P6SM -SHRA SCT025 BKN035
      TEMPO 0218/0222 3SM -TSRA OVC020CB
     FM022200 VRB03KT 5SM BR VCTS OVC020CB=



000
FTUS41 KRNK 020529
TAFROA
TAF
KROA 020529Z 0206/0306 25006KT P6SM VCSH SCT040 OVC070
     FM021000 29004KT P6SM VCSH BKN025 OVC040
     FM021500 27005KT P6SM VCSH SCT030 BKN040
     FM022000 26007KT P6SM -SHRA SCT025 BKN035
      TEMPO 0220/0224 3SM -TSRA OVC020CB
     FM030000 25005KT P6SM VCTS OVC050CB=



000
FTUS41 KRNK 020529
TAFLYH
TAF
KLYH 020529Z 0206/0306 00000KT P6SM VCSH SCT040 OVC070
     FM021000 VRB03KT P6SM VCSH BKN025 OVC040
     FM021500 24004KT P6SM VCSH SCT030 BKN040
     FM022100 23005KT P6SM -SHRA SCT025 BKN035
      TEMPO 0221/0301 3SM -TSRA OVC020CB
     FM030100 VRB03KT P6SM VCTS OVC050CB=



000
FTUS41 KRNK 020529
TAFBLF
TAF
KBLF 020529Z 0206/0306 27009KT P6SM VCSH SCT030 OVC070
     FM021000 27008KT P6SM VCSH BKN012 OVC040
     FM021800 26007KT P6SM -SHRA SCT025 BKN035
      TEMPO 0218/0222 3SM -TSRA OVC020CB
     FM022200 VRB03KT 5SM BR VCTS OVC020CB=



000
FTUS41 KRNK 020529
TAFLWB
TAF
KLWB 020529Z 0206/0306 00000KT 4SM BR VCSH SCT030 OVC070
      TEMPO 0206/0210 2SM -SHRA BR OVC025
     FM021000 VRB03KT P6SM VCSH BKN015 OVC040
     FM021800 27006KT P6SM -SHRA SCT025 BKN035
      TEMPO 0218/0222 3SM -TSRA OVC020CB
     FM022200 VRB03KT 5SM BR VCTS OVC020CB=



000
FTUS41 KRNK 020529
TAFDAN
TAF
KDAN 020529Z 0206/0306 23004KT P6SM VCSH SCT040 OVC070
     FM021000 VRB03KT P6SM VCSH BKN025 OVC040
     FM021500 25007KT P6SM VCSH SCT030 BKN040
     FM022100 24008KT P6SM -SHRA SCT025 BKN035
      TEMPO 0221/0301 3SM -TSRA OVC020CB
     FM030100 25004KT P6SM VCTS OVC050CB=



000
FTUS41 KRNK 020529
TAFLWB
TAF
KLWB 020529Z 0206/0306 00000KT 4SM BR VCSH SCT030 OVC070
      TEMPO 0206/0210 2SM -SHRA BR OVC025
     FM021000 VRB03KT P6SM VCSH BKN015 OVC040
     FM021800 27006KT P6SM -SHRA SCT025 BKN035
      TEMPO 0218/0222 3SM -TSRA OVC020CB
     FM022200 VRB03KT 5SM BR VCTS OVC020CB=



000
FTUS41 KRNK 020529
TAFLYH
TAF
KLYH 020529Z 0206/0306 00000KT P6SM VCSH SCT040 OVC070
     FM021000 VRB03KT P6SM VCSH BKN025 OVC040
     FM021500 24004KT P6SM VCSH SCT030 BKN040
     FM022100 23005KT P6SM -SHRA SCT025 BKN035
      TEMPO 0221/0301 3SM -TSRA OVC020CB
     FM030100 VRB03KT P6SM VCTS OVC050CB=



000
FTUS41 KRNK 020529
TAFROA
TAF
KROA 020529Z 0206/0306 25006KT P6SM VCSH SCT040 OVC070
     FM021000 29004KT P6SM VCSH BKN025 OVC040
     FM021500 27005KT P6SM VCSH SCT030 BKN040
     FM022000 26007KT P6SM -SHRA SCT025 BKN035
      TEMPO 0220/0224 3SM -TSRA OVC020CB
     FM030000 25005KT P6SM VCTS OVC050CB=



000
FTUS41 KRNK 020529
TAFROA
TAF
KROA 020529Z 0206/0306 25006KT P6SM VCSH SCT040 OVC070
     FM021000 29004KT P6SM VCSH BKN025 OVC040
     FM021500 27005KT P6SM VCSH SCT030 BKN040
     FM022000 26007KT P6SM -SHRA SCT025 BKN035
      TEMPO 0220/0224 3SM -TSRA OVC020CB
     FM030000 25005KT P6SM VCTS OVC050CB=



000
FTUS41 KRNK 020529
TAFLWB
TAF
KLWB 020529Z 0206/0306 00000KT 4SM BR VCSH SCT030 OVC070
      TEMPO 0206/0210 2SM -SHRA BR OVC025
     FM021000 VRB03KT P6SM VCSH BKN015 OVC040
     FM021800 27006KT P6SM -SHRA SCT025 BKN035
      TEMPO 0218/0222 3SM -TSRA OVC020CB
     FM022200 VRB03KT 5SM BR VCTS OVC020CB=



000
FTUS41 KRNK 020529
TAFDAN
TAF
KDAN 020529Z 0206/0306 23004KT P6SM VCSH SCT040 OVC070
     FM021000 VRB03KT P6SM VCSH BKN025 OVC040
     FM021500 25007KT P6SM VCSH SCT030 BKN040
     FM022100 24008KT P6SM -SHRA SCT025 BKN035
      TEMPO 0221/0301 3SM -TSRA OVC020CB
     FM030100 25004KT P6SM VCTS OVC050CB=



000
FTUS41 KRNK 020529
TAFLYH
TAF
KLYH 020529Z 0206/0306 00000KT P6SM VCSH SCT040 OVC070
     FM021000 VRB03KT P6SM VCSH BKN025 OVC040
     FM021500 24004KT P6SM VCSH SCT030 BKN040
     FM022100 23005KT P6SM -SHRA SCT025 BKN035
      TEMPO 0221/0301 3SM -TSRA OVC020CB
     FM030100 VRB03KT P6SM VCTS OVC050CB=



000
FTUS41 KRNK 020529
TAFBLF
TAF
KBLF 020529Z 0206/0306 27009KT P6SM VCSH SCT030 OVC070
     FM021000 27008KT P6SM VCSH BKN012 OVC040
     FM021800 26007KT P6SM -SHRA SCT025 BKN035
      TEMPO 0218/0222 3SM -TSRA OVC020CB
     FM022200 VRB03KT 5SM BR VCTS OVC020CB=



000
FTUS41 KRNK 020529
TAFDAN
TAF
KDAN 020529Z 0206/0306 23004KT P6SM VCSH SCT040 OVC070
     FM021000 VRB03KT P6SM VCSH BKN025 OVC040
     FM021500 25007KT P6SM VCSH SCT030 BKN040
     FM022100 24008KT P6SM -SHRA SCT025 BKN035
      TEMPO 0221/0301 3SM -TSRA OVC020CB
     FM030100 25004KT P6SM VCTS OVC050CB=



000
FTUS41 KRNK 020529
TAFROA
TAF
KROA 020529Z 0206/0306 25006KT P6SM VCSH SCT040 OVC070
     FM021000 29004KT P6SM VCSH BKN025 OVC040
     FM021500 27005KT P6SM VCSH SCT030 BKN040
     FM022000 26007KT P6SM -SHRA SCT025 BKN035
      TEMPO 0220/0224 3SM -TSRA OVC020CB
     FM030000 25005KT P6SM VCTS OVC050CB=



000
FTUS41 KRNK 020340 AAB
TAFLWB
TAF AMD
KLWB 020340Z 0204/0224 00000KT 3SM BR VCSH SCT050 OVC070
     FM020600 00000KT 2SM -SHRA BR SCT007 OVC040
     FM021400 00000KT 5SM HZ VCSH OVC040
     FM021800 VRB03KT 6SM -SHRA BR BKN015
     FM022100 25005KT 6SM -SHRA VCTS SCT018 OVC022CB=



000
FTUS41 KRNK 020340 AAB
TAFLWB
TAF AMD
KLWB 020340Z 0204/0224 00000KT 3SM BR VCSH SCT050 OVC070
     FM020600 00000KT 2SM -SHRA BR SCT007 OVC040
     FM021400 00000KT 5SM HZ VCSH OVC040
     FM021800 VRB03KT 6SM -SHRA BR BKN015
     FM022100 25005KT 6SM -SHRA VCTS SCT018 OVC022CB=



000
FTUS41 KRNK 020339 AAC
TAFDAN
TAF AMD
KDAN 020339Z 0204/0224 22003KT 5SM BR SCT060 SCT100
     FM020900 23003KT 2SM BR SCT040
     FM021200 26004KT P6SM VCSH OVC060
     FM022200 26009KT 6SM -SHRA VCTS OVC050CB=



000
FTUS41 KRNK 020339 AAC
TAFDAN
TAF AMD
KDAN 020339Z 0204/0224 22003KT 5SM BR SCT060 SCT100
     FM020900 23003KT 2SM BR SCT040
     FM021200 26004KT P6SM VCSH OVC060
     FM022200 26009KT 6SM -SHRA VCTS OVC050CB=



000
FTUS41 KRNK 020153 AAA
TAFBLF
TAF AMD
KBLF 020153Z 0202/0224 26007KT 6SM HZ SCT035 SCT090 BKN110
     FM020600 26005KT 6SM -SHRA BKN015
     FM020800 27004KT 6SM -SHRA BR OVC008
     FM021400 26005KT P6SM VCSH OVC015
     FM021800 26007KT 6SM -SHRA BR BKN015
     FM022100 24006KT 2SM -SHRA VCTS SCT018 OVC022CB=



000
FTUS41 KRNK 020153 AAA
TAFBLF
TAF AMD
KBLF 020153Z 0202/0224 26007KT 6SM HZ SCT035 SCT090 BKN110
     FM020600 26005KT 6SM -SHRA BKN015
     FM020800 27004KT 6SM -SHRA BR OVC008
     FM021400 26005KT P6SM VCSH OVC015
     FM021800 26007KT 6SM -SHRA BR BKN015
     FM022100 24006KT 2SM -SHRA VCTS SCT018 OVC022CB=



000
FTUS41 KRNK 020142 AAB
TAFDAN
TAF AMD
KDAN 020142Z 0202/0224 22003KT P6SM BKN070 OVC080
     FM020600 VRB03KT P6SM -SHRA BKN040
     FM021200 26004KT P6SM VCSH OVC060
     FM022200 26009KT 6SM -SHRA VCTS OVC050CB=



000
FTUS41 KRNK 020142 AAB
TAFDAN
TAF AMD
KDAN 020142Z 0202/0224 22003KT P6SM BKN070 OVC080
     FM020600 VRB03KT P6SM -SHRA BKN040
     FM021200 26004KT P6SM VCSH OVC060
     FM022200 26009KT 6SM -SHRA VCTS OVC050CB=



000
FTUS41 KRNK 020058 AAA
TAFDAN
TAF AMD
KDAN 020058Z 0201/0224 19004KT 6SM -SHRA BKN070 BKN090
      TEMPO 0201/0203 3SM SHRA OVC040
     FM020600 VRB03KT P6SM -SHRA BKN040
     FM021200 26004KT P6SM VCSH OVC060
     FM022200 26009KT 6SM -SHRA VCTS OVC050CB=



000
FTUS41 KRNK 020058 AAA
TAFDAN
TAF AMD
KDAN 020058Z 0201/0224 19004KT 6SM -SHRA BKN070 BKN090
      TEMPO 0201/0203 3SM SHRA OVC040
     FM020600 VRB03KT P6SM -SHRA BKN040
     FM021200 26004KT P6SM VCSH OVC060
     FM022200 26009KT 6SM -SHRA VCTS OVC050CB=



000
FTUS41 KRNK 020058 AAA
TAFDAN
TAF AMD
KDAN 020058Z 0201/0224 19004KT 6SM -SHRA BKN070 BKN090
      TEMPO 0201/0203 3SM SHRA OVC040
     FM020600 VRB03KT P6SM -SHRA BKN040
     FM021200 26004KT P6SM VCSH OVC060
     FM022200 26009KT 6SM -SHRA VCTS OVC050CB=



000
FTUS41 KRNK 020058 AAA
TAFDAN
TAF AMD
KDAN 020058Z 0201/0224 19004KT 6SM -SHRA BKN070 BKN090
      TEMPO 0201/0203 3SM SHRA OVC040
     FM020600 VRB03KT P6SM -SHRA BKN040
     FM021200 26004KT P6SM VCSH OVC060
     FM022200 26009KT 6SM -SHRA VCTS OVC050CB=



000
FTUS41 KRNK 012344 AAA
TAFLWB
TAF AMD
KLWB 012344Z 0200/0224 30003KT P6SM BKN050
     FM020400 00000KT 4SM BR VCSH OVC070
     FM020600 00000KT 4SM -SHRA BR SCT007 OVC040
     FM021400 00000KT 5SM HZ VCSH OVC040
     FM021800 VRB03KT 6SM -SHRA BR BKN015
     FM022100 25005KT 6SM -SHRA VCTS SCT018 OVC022CB=



000
FTUS41 KRNK 012344 AAA
TAFLWB
TAF AMD
KLWB 012344Z 0200/0224 30003KT P6SM BKN050
     FM020400 00000KT 4SM BR VCSH OVC070
     FM020600 00000KT 4SM -SHRA BR SCT007 OVC040
     FM021400 00000KT 5SM HZ VCSH OVC040
     FM021800 VRB03KT 6SM -SHRA BR BKN015
     FM022100 25005KT 6SM -SHRA VCTS SCT018 OVC022CB=



000
FTUS41 KRNK 012343
TAFBLF
TAF
KBLF 012343Z 0200/0224 26006KT P6SM -SHRA BKN040
     FM020300 26005KT P6SM -SHRA BKN015
     FM020800 27004KT 6SM -SHRA BR OVC008
     FM021400 26005KT P6SM VCSH OVC015
     FM021800 26007KT 6SM -SHRA BR BKN015
     FM022100 24006KT 2SM -SHRA VCTS SCT018 OVC022CB=



000
FTUS41 KRNK 012343
TAFROA
TAF
KROA 012343Z 0200/0224 28004KT P6SM FEW060 BKN250
     FM020300 30004KT P6SM -SHRA BKN050
     FM020700 28004KT 6SM -SHRA BR SCT025 BKN035
     FM021200 26004KT P6SM VCSH SCT030 BKN040
     FM021900 20008KT 6SM -SHRA BR SCT025 BKN035
     FM022200 22006KT 6SM -SHRA VCTS OVC035CB=



000
FTUS41 KRNK 012343
TAFLWB
TAF
KLWB 012343Z 0200/0224 30003KT 5SM BR BKN250
     FM020400 00000KT 4SM BR VCSH OVC070
     FM020600 00000KT 4SM -SHRA BR SCT007 OVC040
     FM021400 00000KT 5SM HZ VCSH OVC040
     FM021800 VRB03KT 6SM -SHRA BR BKN015
     FM022100 25005KT 6SM -SHRA VCTS SCT018 OVC022CB=



000
FTUS41 KRNK 012343
TAFDAN
TAF
KDAN 012343Z 0200/0224 00000KT P6SM BKN250
     FM020200 23005KT P6SM BKN060
      TEMPO 0202/0206 -SHRA
     FM020600 VRB03KT P6SM -SHRA BKN040
     FM021200 26004KT P6SM VCSH OVC060
     FM022200 26009KT 6SM -SHRA VCTS OVC050CB=



000
FTUS41 KRNK 012343
TAFLYH
TAF
KLYH 012343Z 0200/0224 20008KT P6SM BKN250
     FM020800 VRB03KT P6SM -SHRA BKN040
     FM021200 24004KT P6SM VCSH BKN040
     FM021900 22005KT 6SM -SHRA BR SCT025 BKN035
     FM022200 22004KT 6SM -SHRA VCTS OVC025CB=



000
FTUS41 KRNK 012343
TAFBLF
TAF
KBLF 012343Z 0200/0224 26006KT P6SM -SHRA BKN040
     FM020300 26005KT P6SM -SHRA BKN015
     FM020800 27004KT 6SM -SHRA BR OVC008
     FM021400 26005KT P6SM VCSH OVC015
     FM021800 26007KT 6SM -SHRA BR BKN015
     FM022100 24006KT 2SM -SHRA VCTS SCT018 OVC022CB=



000
FTUS41 KRNK 012343
TAFROA
TAF
KROA 012343Z 0200/0224 28004KT P6SM FEW060 BKN250
     FM020300 30004KT P6SM -SHRA BKN050
     FM020700 28004KT 6SM -SHRA BR SCT025 BKN035
     FM021200 26004KT P6SM VCSH SCT030 BKN040
     FM021900 20008KT 6SM -SHRA BR SCT025 BKN035
     FM022200 22006KT 6SM -SHRA VCTS OVC035CB=



000
FTUS41 KRNK 012343
TAFLWB
TAF
KLWB 012343Z 0200/0224 30003KT 5SM BR BKN250
     FM020400 00000KT 4SM BR VCSH OVC070
     FM020600 00000KT 4SM -SHRA BR SCT007 OVC040
     FM021400 00000KT 5SM HZ VCSH OVC040
     FM021800 VRB03KT 6SM -SHRA BR BKN015
     FM022100 25005KT 6SM -SHRA VCTS SCT018 OVC022CB=



000
FTUS41 KRNK 012343
TAFROA
TAF
KROA 012343Z 0200/0224 28004KT P6SM FEW060 BKN250
     FM020300 30004KT P6SM -SHRA BKN050
     FM020700 28004KT 6SM -SHRA BR SCT025 BKN035
     FM021200 26004KT P6SM VCSH SCT030 BKN040
     FM021900 20008KT 6SM -SHRA BR SCT025 BKN035
     FM022200 22006KT 6SM -SHRA VCTS OVC035CB=



000
FTUS41 KRNK 012343
TAFLYH
TAF
KLYH 012343Z 0200/0224 20008KT P6SM BKN250
     FM020800 VRB03KT P6SM -SHRA BKN040
     FM021200 24004KT P6SM VCSH BKN040
     FM021900 22005KT 6SM -SHRA BR SCT025 BKN035
     FM022200 22004KT 6SM -SHRA VCTS OVC025CB=



000
FTUS41 KRNK 012343
TAFDAN
TAF
KDAN 012343Z 0200/0224 00000KT P6SM BKN250
     FM020200 23005KT P6SM BKN060
      TEMPO 0202/0206 -SHRA
     FM020600 VRB03KT P6SM -SHRA BKN040
     FM021200 26004KT P6SM VCSH OVC060
     FM022200 26009KT 6SM -SHRA VCTS OVC050CB=



000
FTUS41 KRNK 012343
TAFDAN
TAF
KDAN 012343Z 0200/0224 00000KT P6SM BKN250
     FM020200 23005KT P6SM BKN060
      TEMPO 0202/0206 -SHRA
     FM020600 VRB03KT P6SM -SHRA BKN040
     FM021200 26004KT P6SM VCSH OVC060
     FM022200 26009KT 6SM -SHRA VCTS OVC050CB=



000
FTUS41 KRNK 012343
TAFBLF
TAF
KBLF 012343Z 0200/0224 26006KT P6SM -SHRA BKN040
     FM020300 26005KT P6SM -SHRA BKN015
     FM020800 27004KT 6SM -SHRA BR OVC008
     FM021400 26005KT P6SM VCSH OVC015
     FM021800 26007KT 6SM -SHRA BR BKN015
     FM022100 24006KT 2SM -SHRA VCTS SCT018 OVC022CB=



000
FTUS41 KRNK 012343
TAFROA
TAF
KROA 012343Z 0200/0224 28004KT P6SM FEW060 BKN250
     FM020300 30004KT P6SM -SHRA BKN050
     FM020700 28004KT 6SM -SHRA BR SCT025 BKN035
     FM021200 26004KT P6SM VCSH SCT030 BKN040
     FM021900 20008KT 6SM -SHRA BR SCT025 BKN035
     FM022200 22006KT 6SM -SHRA VCTS OVC035CB=



000
FTUS41 KRNK 012343
TAFLYH
TAF
KLYH 012343Z 0200/0224 20008KT P6SM BKN250
     FM020800 VRB03KT P6SM -SHRA BKN040
     FM021200 24004KT P6SM VCSH BKN040
     FM021900 22005KT 6SM -SHRA BR SCT025 BKN035
     FM022200 22004KT 6SM -SHRA VCTS OVC025CB=



000
FTUS41 KRNK 012343
TAFLWB
TAF
KLWB 012343Z 0200/0224 30003KT 5SM BR BKN250
     FM020400 00000KT 4SM BR VCSH OVC070
     FM020600 00000KT 4SM -SHRA BR SCT007 OVC040
     FM021400 00000KT 5SM HZ VCSH OVC040
     FM021800 VRB03KT 6SM -SHRA BR BKN015
     FM022100 25005KT 6SM -SHRA VCTS SCT018 OVC022CB=



000
FTUS41 KRNK 011737
TAFDAN
TAF
KDAN 011737Z 0118/0218 26007KT P6SM SCT060 BKN250
     FM020200 23005KT P6SM BKN100
     FM021200 28004KT P6SM VCSH OVC060=



000
FTUS41 KRNK 011737
TAFLYH
TAF
KLYH 011737Z 0118/0218 25009KT P6SM SCT050 BKN250
     FM020000 VRB03KT P6SM SCT100
     FM020600 00000KT P6SM BKN060=



000
FTUS41 KRNK 011737
TAFLWB
TAF
KLWB 011737Z 0118/0218 28007KT P6SM BKN040
     FM020400 00000KT 4SM BR VCSH OVC070
     FM020600 00000KT 4SM -SHRA BR SCT007 OVC040
     FM021400 00000KT 5SM HZ VCSH OVC040=



000
FTUS41 KRNK 011737
TAFBLF
TAF
KBLF 011737Z 0118/0218 30011G18KT P6SM BKN035
     FM012100 27008KT P6SM VCTS BKN040CB
     FM020300 26005KT P6SM -SHRA BKN015
     FM020800 27004KT 3SM -SHRA BR OVC008
     FM021400 26005KT P6SM VCSH OVC015=



000
FTUS41 KRNK 011737
TAFLWB
TAF
KLWB 011737Z 0118/0218 28007KT P6SM BKN040
     FM020400 00000KT 4SM BR VCSH OVC070
     FM020600 00000KT 4SM -SHRA BR SCT007 OVC040
     FM021400 00000KT 5SM HZ VCSH OVC040=



000
FTUS41 KRNK 011737
TAFROA
TAF
KROA 011737Z 0118/0218 27011G19KT P6SM SCT045
     FM012000 28006KT P6SM BKN060
     FM020600 30004KT P6SM VCSH OVC050=



000
FTUS41 KRNK 011737
TAFROA
TAF
KROA 011737Z 0118/0218 27011G19KT P6SM SCT045
     FM012000 28006KT P6SM BKN060
     FM020600 30004KT P6SM VCSH OVC050=



000
FTUS41 KRNK 011737
TAFLYH
TAF
KLYH 011737Z 0118/0218 25009KT P6SM SCT050 BKN250
     FM020000 VRB03KT P6SM SCT100
     FM020600 00000KT P6SM BKN060=



000
FTUS41 KRNK 011737
TAFDAN
TAF
KDAN 011737Z 0118/0218 26007KT P6SM SCT060 BKN250
     FM020200 23005KT P6SM BKN100
     FM021200 28004KT P6SM VCSH OVC060=



000
FTUS41 KRNK 011737
TAFBLF
TAF
KBLF 011737Z 0118/0218 30011G18KT P6SM BKN035
     FM012100 27008KT P6SM VCTS BKN040CB
     FM020300 26005KT P6SM -SHRA BKN015
     FM020800 27004KT 3SM -SHRA BR OVC008
     FM021400 26005KT P6SM VCSH OVC015=



000
FTUS41 KRNK 011424 AAA
TAFBLF
TAF AMD
KBLF 011424Z 0114/0212 26009KT P6SM FEW010 OVC016
     FM011600 28010G18KT P6SM BKN040
     FM020000 26005KT P6SM BKN045 OVC080
     FM020900 27004KT 4SM BR VCSH OVC015
      TEMPO 0209/0212 2SM BR OVC007=



000
FTUS41 KRNK 011424 AAA
TAFBLF
TAF AMD
KBLF 011424Z 0114/0212 26009KT P6SM FEW010 OVC016
     FM011600 28010G18KT P6SM BKN040
     FM020000 26005KT P6SM BKN045 OVC080
     FM020900 27004KT 4SM BR VCSH OVC015
      TEMPO 0209/0212 2SM BR OVC007=



000
FTUS41 KRNK 011422 AAA
TAFLWB
TAF AMD
KLWB 011422Z 0114/0212 22007KT P6SM OVC015
     FM011600 27008G16KT P6SM BKN040
     FM020100 00000KT P6SM BKN050 OVC090
     FM020600 00000KT 1/2SM FG VV001=



000
FTUS41 KRNK 011422 AAA
TAFLWB
TAF AMD
KLWB 011422Z 0114/0212 22007KT P6SM OVC015
     FM011600 27008G16KT P6SM BKN040
     FM020100 00000KT P6SM BKN050 OVC090
     FM020600 00000KT 1/2SM FG VV001=



000
FTUS41 KRNK 011422 AAA
TAFLWB
TAF AMD
KLWB 011422Z 0114/0212 22007KT P6SM OVC015
     FM011600 27008G16KT P6SM BKN040
     FM020100 00000KT P6SM BKN050 OVC090
     FM020600 00000KT 1/2SM FG VV001=



000
FTUS41 KRNK 011422 AAA
TAFLWB
TAF AMD
KLWB 011422Z 0114/0212 22007KT P6SM OVC015
     FM011600 27008G16KT P6SM BKN040
     FM020100 00000KT P6SM BKN050 OVC090
     FM020600 00000KT 1/2SM FG VV001=



000
FTUS41 KRNK 011146
TAFBLF
TAF
KBLF 011146Z 0112/0212 25007KT P6SM OVC013
     FM011400 27010G18KT P6SM SCT015 SCT025 BKN250
     FM011800 28010G18KT P6SM VCTS BKN045CB OVC100
     FM020000 26005KT P6SM BKN045 OVC080
     FM020900 27004KT 4SM BR VCSH OVC015
      TEMPO 0209/0212 2SM BR OVC007=



000
FTUS41 KRNK 011146
TAFDAN
TAF
KDAN 011146Z 0112/0212 23004KT P6SM SCT250
     FM011500 25009G16KT P6SM SCT060
     FM020000 25005KT P6SM BKN100 BKN250
     FM020600 28004KT P6SM BKN060 OVC100=



000
FTUS41 KRNK 011146
TAFLWB
TAF
KLWB 011146Z 0112/0212 00000KT P6SM SCT023 SCT250
      TEMPO 0112/0113 4SM BR BKN023
     FM011400 27008G15KT P6SM SCT035 SCT250
     FM011900 28008G16KT P6SM BKN050 BKN100
     FM020100 00000KT P6SM BKN050 OVC090
      TEMPO 0204/0206 4SM BR
     FM020600 00000KT 1/2SM FG VV001=



000
FTUS41 KRNK 011146
TAFROA
TAF
KROA 011146Z 0112/0212 27007KT P6SM SCT050 SCT250
     FM011600 27010G18KT P6SM BKN050
     FM020000 28006KT P6SM SCT050 BKN100 OVC250
     FM020600 30004KT P6SM VCSH BKN050 OVC100=



000
FTUS41 KRNK 011146
TAFLYH
TAF
KLYH 011146Z 0112/0212 VRB03KT P6SM SCT250
     FM011400 25006KT P6SM SCT060 SCT250
     FM011800 24008KT P6SM BKN060 BKN250
     FM020000 VRB03KT P6SM BKN100 BKN250
     FM020900 00000KT 4SM BR BKN060 OVC100=



000
FTUS41 KRNK 011146
TAFDAN
TAF
KDAN 011146Z 0112/0212 23004KT P6SM SCT250
     FM011500 25009G16KT P6SM SCT060
     FM020000 25005KT P6SM BKN100 BKN250
     FM020600 28004KT P6SM BKN060 OVC100=



000
FTUS41 KRNK 011146
TAFLYH
TAF
KLYH 011146Z 0112/0212 VRB03KT P6SM SCT250
     FM011400 25006KT P6SM SCT060 SCT250
     FM011800 24008KT P6SM BKN060 BKN250
     FM020000 VRB03KT P6SM BKN100 BKN250
     FM020900 00000KT 4SM BR BKN060 OVC100=



000
FTUS41 KRNK 011146
TAFLWB
TAF
KLWB 011146Z 0112/0212 00000KT P6SM SCT023 SCT250
      TEMPO 0112/0113 4SM BR BKN023
     FM011400 27008G15KT P6SM SCT035 SCT250
     FM011900 28008G16KT P6SM BKN050 BKN100
     FM020100 00000KT P6SM BKN050 OVC090
      TEMPO 0204/0206 4SM BR
     FM020600 00000KT 1/2SM FG VV001=



000
FTUS41 KRNK 011146
TAFROA
TAF
KROA 011146Z 0112/0212 27007KT P6SM SCT050 SCT250
     FM011600 27010G18KT P6SM BKN050
     FM020000 28006KT P6SM SCT050 BKN100 OVC250
     FM020600 30004KT P6SM VCSH BKN050 OVC100=



000
FTUS41 KRNK 011146
TAFBLF
TAF
KBLF 011146Z 0112/0212 25007KT P6SM OVC013
     FM011400 27010G18KT P6SM SCT015 SCT025 BKN250
     FM011800 28010G18KT P6SM VCTS BKN045CB OVC100
     FM020000 26005KT P6SM BKN045 OVC080
     FM020900 27004KT 4SM BR VCSH OVC015
      TEMPO 0209/0212 2SM BR OVC007=



000
FTUS41 KRNK 011055 AAA
TAFLWB
TAF AMD
KLWB 011055Z 0111/0206 00000KT 3SM BR SCT001 SCT250
      TEMPO 0111/0113 1/2SM FG VV001
     FM011400 25008G15KT P6SM BKN045
     FM020100 00000KT 5SM BR OVC100=



000
FTUS41 KRNK 011055 AAA
TAFLWB
TAF AMD
KLWB 011055Z 0111/0206 00000KT 3SM BR SCT001 SCT250
      TEMPO 0111/0113 1/2SM FG VV001
     FM011400 25008G15KT P6SM BKN045
     FM020100 00000KT 5SM BR OVC100=



000
FTUS41 KRNK 011055 AAA
TAFLWB
TAF AMD
KLWB 011055Z 0111/0206 00000KT 3SM BR SCT001 SCT250
      TEMPO 0111/0113 1/2SM FG VV001
     FM011400 25008G15KT P6SM BKN045
     FM020100 00000KT 5SM BR OVC100=



000
FTUS41 KRNK 011055 AAA
TAFLWB
TAF AMD
KLWB 011055Z 0111/0206 00000KT 3SM BR SCT001 SCT250
      TEMPO 0111/0113 1/2SM FG VV001
     FM011400 25008G15KT P6SM BKN045
     FM020100 00000KT 5SM BR OVC100=



000
FTUS41 KRNK 010533
TAFROA
TAF
KROA 010533Z 0106/0206 33007KT P6SM OVC250
     FM011500 27010G17KT P6SM BKN060
     FM020000 30005KT P6SM OVC250
     FM020500 30004KT P6SM OVC100=



000
FTUS41 KRNK 010533
TAFLWB
TAF
KLWB 010533Z 0106/0206 00000KT 3SM BR SCT040 BKN100
     FM010800 00000KT 1/2SM FG OVC001
     FM011500 25008G15KT P6SM BKN045
     FM020100 00000KT 5SM BR OVC100=



000
FTUS41 KRNK 010533
TAFLYH
TAF
KLYH 010533Z 0106/0206 VRB03KT P6SM SCT040
      TEMPO 0108/0112 3SM BR SKC
     FM011400 24006KT P6SM BKN050
     FM020000 00000KT P6SM OVC250=



000
FTUS41 KRNK 010533
TAFROA
TAF
KROA 010533Z 0106/0206 33007KT P6SM OVC250
     FM011500 27010G17KT P6SM BKN060
     FM020000 30005KT P6SM OVC250
     FM020500 30004KT P6SM OVC100=



000
FTUS41 KRNK 010533
TAFLWB
TAF
KLWB 010533Z 0106/0206 00000KT 3SM BR SCT040 BKN100
     FM010800 00000KT 1/2SM FG OVC001
     FM011500 25008G15KT P6SM BKN045
     FM020100 00000KT 5SM BR OVC100=



000
FTUS41 KRNK 010533
TAFLWB
TAF
KLWB 010533Z 0106/0206 00000KT 3SM BR SCT040 BKN100
     FM010800 00000KT 1/2SM FG OVC001
     FM011500 25008G15KT P6SM BKN045
     FM020100 00000KT 5SM BR OVC100=



000
FTUS41 KRNK 010533
TAFROA
TAF
KROA 010533Z 0106/0206 33007KT P6SM OVC250
     FM011500 27010G17KT P6SM BKN060
     FM020000 30005KT P6SM OVC250
     FM020500 30004KT P6SM OVC100=



000
FTUS41 KRNK 010533
TAFLYH
TAF
KLYH 010533Z 0106/0206 VRB03KT P6SM SCT040
      TEMPO 0108/0112 3SM BR SKC
     FM011400 24006KT P6SM BKN050
     FM020000 00000KT P6SM OVC250=



000
FTUS41 KRNK 010533
TAFDAN
TAF
KDAN 010533Z 0106/0206 VRB03KT P6SM FEW250
     FM011500 25009G16KT P6SM BKN060
     FM020000 25005KT P6SM OVC250=



000
FTUS41 KRNK 010533
TAFLYH
TAF
KLYH 010533Z 0106/0206 VRB03KT P6SM SCT040
      TEMPO 0108/0112 3SM BR SKC
     FM011400 24006KT P6SM BKN050
     FM020000 00000KT P6SM OVC250=



000
FTUS41 KRNK 010533
TAFDAN
TAF
KDAN 010533Z 0106/0206 VRB03KT P6SM FEW250
     FM011500 25009G16KT P6SM BKN060
     FM020000 25005KT P6SM OVC250=



000
FTUS41 KRNK 010533
TAFBLF
TAF
KBLF 010533Z 0106/0206 25005KT P6SM BKN035
     FM010800 25007KT P6SM OVC012
     FM011400 28011G17KT P6SM SCT013 OVC050
     FM020400 26005KT P6SM OVC050=



000
FTUS41 KRNK 010533
TAFBLF
TAF
KBLF 010533Z 0106/0206 25005KT P6SM BKN035
     FM010800 25007KT P6SM OVC012
     FM011400 28011G17KT P6SM SCT013 OVC050
     FM020400 26005KT P6SM OVC050=



000
FTUS41 KRNK 010533
TAFLWB
TAF
KLWB 010533Z 0106/0206 00000KT 3SM BR SCT040 BKN100
     FM010800 00000KT 1/2SM FG OVC001
     FM011500 25008G15KT P6SM BKN045
     FM020100 00000KT 5SM BR OVC100=



000
FTUS41 KRNK 010337 AAB
TAFLYH
TAF AMD
KLYH 010337Z 0104/0124 00000KT P6SM -SHRA VCTS BKN040CB
      TEMPO 0104/0106 VRB20G35KT 3SM TSRA OVC025CB
     FM010700 00000KT 5SM BR BKN100
     FM011400 23006KT P6SM SCT050=



000
FTUS41 KRNK 010337 AAB
TAFLYH
TAF AMD
KLYH 010337Z 0104/0124 00000KT P6SM -SHRA VCTS BKN040CB
      TEMPO 0104/0106 VRB20G35KT 3SM TSRA OVC025CB
     FM010700 00000KT 5SM BR BKN100
     FM011400 23006KT P6SM SCT050=



000
FTUS41 KRNK 010218 AAB
TAFROA
TAF AMD
KROA 010218Z 0102/0124 28009KT P6SM -SHRA VCTS BKN050CB BKN100
      TEMPO 0102/0104 VRB20G35KT 4SM SHRA OVC035
     FM010800 25005KT P6SM BKN050
     FM011500 24010KT P6SM SCT060=



000
FTUS41 KRNK 010218 AAB
TAFROA
TAF AMD
KROA 010218Z 0102/0124 28009KT P6SM -SHRA VCTS BKN050CB BKN100
      TEMPO 0102/0104 VRB20G35KT 4SM SHRA OVC035
     FM010800 25005KT P6SM BKN050
     FM011500 24010KT P6SM SCT060=



000
FTUS41 KRNK 010218 AAB
TAFROA
TAF AMD
KROA 010218Z 0102/0124 28009KT P6SM -SHRA VCTS BKN050CB BKN100
      TEMPO 0102/0104 VRB20G35KT 4SM SHRA OVC035
     FM010800 25005KT P6SM BKN050
     FM011500 24010KT P6SM SCT060=



000
FTUS41 KRNK 010218 AAB
TAFROA
TAF AMD
KROA 010218Z 0102/0124 28009KT P6SM -SHRA VCTS BKN050CB BKN100
      TEMPO 0102/0104 VRB20G35KT 4SM SHRA OVC035
     FM010800 25005KT P6SM BKN050
     FM011500 24010KT P6SM SCT060=



000
FTUS41 KRNK 010151 AAB
TAFBLF
TAF AMD
KBLF 010151Z 0102/0124 VRB04KT P6SM VCTS BKN018 BKN030CB
      TEMPO 0102/0104 VRB20G30KT 2SM TSRA OVC025CB
     FM010400 25004KT 5SM -SHRA BKN035
     FM010900 27008KT P6SM OVC012
     FM011200 25007KT P6SM SCT013 OVC050
     FM011800 27009KT P6SM BKN045=



000
FTUS41 KRNK 010136 AAA
TAFLYH
TAF AMD
KLYH 010136Z 0102/0124 23005KT P6SM VCTS BKN050CB
      TEMPO 0102/0104 3SM TSRA OVC035CB
     FM010400 23003KT P6SM BKN120
     FM011000 00000KT 5SM BR BKN100
     FM011400 23006KT P6SM SCT050=



000
FTUS41 KRNK 010136 AAA
TAFLYH
TAF AMD
KLYH 010136Z 0102/0124 23005KT P6SM VCTS BKN050CB
      TEMPO 0102/0104 3SM TSRA OVC035CB
     FM010400 23003KT P6SM BKN120
     FM011000 00000KT 5SM BR BKN100
     FM011400 23006KT P6SM SCT050=



000
FTUS41 KRNK 010136 AAA
TAFLYH
TAF AMD
KLYH 010136Z 0102/0124 23005KT P6SM VCTS BKN050CB
      TEMPO 0102/0104 3SM TSRA OVC035CB
     FM010400 23003KT P6SM BKN120
     FM011000 00000KT 5SM BR BKN100
     FM011400 23006KT P6SM SCT050=



000
FTUS41 KRNK 010136 AAA
TAFLYH
TAF AMD
KLYH 010136Z 0102/0124 23005KT P6SM VCTS BKN050CB
      TEMPO 0102/0104 3SM TSRA OVC035CB
     FM010400 23003KT P6SM BKN120
     FM011000 00000KT 5SM BR BKN100
     FM011400 23006KT P6SM SCT050=



000
FTUS41 KRNK 010120 AAA
TAFROA
TAF AMD
KROA 010120Z 0101/0124 28005KT P6SM -SHRA VCTS BKN050CB BKN100
      TEMPO 0101/0104 4SM SHRA OVC035
     FM010800 25005KT P6SM BKN050
     FM011500 24010KT P6SM SCT060=



000
FTUS41 KRNK 010120 AAA
TAFROA
TAF AMD
KROA 010120Z 0101/0124 28005KT P6SM -SHRA VCTS BKN050CB BKN100
      TEMPO 0101/0104 4SM SHRA OVC035
     FM010800 25005KT P6SM BKN050
     FM011500 24010KT P6SM SCT060=



000
FTUS41 KRNK 010120 AAA
TAFROA
TAF AMD
KROA 010120Z 0101/0124 28005KT P6SM -SHRA VCTS BKN050CB BKN100
      TEMPO 0101/0104 4SM SHRA OVC035
     FM010800 25005KT P6SM BKN050
     FM011500 24010KT P6SM SCT060=



000
FTUS41 KRNK 010043 AAA
TAFBLF
TAF AMD
KBLF 010043Z 0101/0124 28010KT 5SM -TSRA SCT025 OVC040CB
      TEMPO 0101/0103 VRB20G30KT 2SM TSRA OVC025CB
     FM010300 25004KT 5SM -SHRA BKN035
     FM010900 27008KT P6SM OVC012
     FM011200 25007KT P6SM SCT013 OVC050
     FM011800 27009KT P6SM BKN045=



000
FTUS41 KRNK 010043 AAA
TAFBLF
TAF AMD
KBLF 010043Z 0101/0124 28010KT 5SM -TSRA SCT025 OVC040CB
      TEMPO 0101/0103 VRB20G30KT 2SM TSRA OVC025CB
     FM010300 25004KT 5SM -SHRA BKN035
     FM010900 27008KT P6SM OVC012
     FM011200 25007KT P6SM SCT013 OVC050
     FM011800 27009KT P6SM BKN045=



000
FTUS41 KRNK 010043 AAA
TAFBLF
TAF AMD
KBLF 010043Z 0101/0124 28010KT 5SM -TSRA SCT025 OVC040CB
      TEMPO 0101/0103 VRB20G30KT 2SM TSRA OVC025CB
     FM010300 25004KT 5SM -SHRA BKN035
     FM010900 27008KT P6SM OVC012
     FM011200 25007KT P6SM SCT013 OVC050
     FM011800 27009KT P6SM BKN045=



000
FTUS41 KRNK 010043 AAA
TAFBLF
TAF AMD
KBLF 010043Z 0101/0124 28010KT 5SM -TSRA SCT025 OVC040CB
      TEMPO 0101/0103 VRB20G30KT 2SM TSRA OVC025CB
     FM010300 25004KT 5SM -SHRA BKN035
     FM010900 27008KT P6SM OVC012
     FM011200 25007KT P6SM SCT013 OVC050
     FM011800 27009KT P6SM BKN045=



000
FTUS41 KRNK 302320
TAFROA
TAF
KROA 302320Z 0100/0124 19010KT P6SM VCSH SCT040 BKN100
     FM010800 25005KT P6SM BKN050
     FM011500 24010KT P6SM SCT060=



000
FTUS41 KRNK 302320
TAFDAN
TAF
KDAN 302320Z 0100/0124 VRB03KT P6SM -SHRA VCTS BKN040CB
      TEMPO 0100/0102 3SM TSRA OVC035CB
     FM010200 24004KT P6SM VCSH BKN040
     FM010900 00000KT 5SM BR SCT050 SCT120
     FM011500 24008KT P6SM SCT060=



000
FTUS41 KRNK 302320
TAFLYH
TAF
KLYH 302320Z 0100/0124 23005KT P6SM VCSH SCT050 SCT100
     FM010400 23003KT P6SM BKN120
     FM011000 00000KT 5SM BR BKN100
     FM011400 23006KT P6SM SCT050=



000
FTUS41 KRNK 302320
TAFBLF
TAF
KBLF 302320Z 0100/0124 23005KT P6SM VCTS BKN045CB
      TEMPO 0100/0102 4SM TSRA OVC035CB
     FM010200 25004KT 5SM -SHRA BKN035
     FM010900 27008KT P6SM OVC012
     FM011200 25007KT P6SM SCT013 OVC050
     FM011800 27009KT P6SM BKN045=



000
FTUS41 KRNK 302320
TAFLWB
TAF
KLWB 302320Z 0100/0124 25006KT P6SM VCTS SCT035 BKN050CB
      TEMPO 0100/0102 VRB20G30KT 4SM TSRA BKN035CB
     FM010200 25003KT 6SM -SHRA SCT040 BKN100
     FM010700 00000KT 4SM BR OVC020
      TEMPO 0109/0112 1/2SM FG BKN001
     FM011300 26005KT P6SM SCT045 BKN100
     FM011600 27007KT P6SM BKN040=



000
FTUS41 KRNK 302320
TAFLYH
TAF
KLYH 302320Z 0100/0124 23005KT P6SM VCSH SCT050 SCT100
     FM010400 23003KT P6SM BKN120
     FM011000 00000KT 5SM BR BKN100
     FM011400 23006KT P6SM SCT050=



000
FTUS41 KRNK 302320
TAFLWB
TAF
KLWB 302320Z 0100/0124 25006KT P6SM VCTS SCT035 BKN050CB
      TEMPO 0100/0102 VRB20G30KT 4SM TSRA BKN035CB
     FM010200 25003KT 6SM -SHRA SCT040 BKN100
     FM010700 00000KT 4SM BR OVC020
      TEMPO 0109/0112 1/2SM FG BKN001
     FM011300 26005KT P6SM SCT045 BKN100
     FM011600 27007KT P6SM BKN040=



000
FTUS41 KRNK 302320
TAFROA
TAF
KROA 302320Z 0100/0124 19010KT P6SM VCSH SCT040 BKN100
     FM010800 25005KT P6SM BKN050
     FM011500 24010KT P6SM SCT060=



000
FTUS41 KRNK 302320
TAFBLF
TAF
KBLF 302320Z 0100/0124 23005KT P6SM VCTS BKN045CB
      TEMPO 0100/0102 4SM TSRA OVC035CB
     FM010200 25004KT 5SM -SHRA BKN035
     FM010900 27008KT P6SM OVC012
     FM011200 25007KT P6SM SCT013 OVC050
     FM011800 27009KT P6SM BKN045=



000
FTUS41 KRNK 302320
TAFDAN
TAF
KDAN 302320Z 0100/0124 VRB03KT P6SM -SHRA VCTS BKN040CB
      TEMPO 0100/0102 3SM TSRA OVC035CB
     FM010200 24004KT P6SM VCSH BKN040
     FM010900 00000KT 5SM BR SCT050 SCT120
     FM011500 24008KT P6SM SCT060=



000
FTUS41 KRNK 302021 AAA
TAFROA
TAF AMD
KROA 302021Z 3020/0118 21009KT P6SM VCTS BKN040CB
     FM010000 28007KT P6SM BKN120=



000
FTUS41 KRNK 302021 AAA
TAFROA
TAF AMD
KROA 302021Z 3020/0118 21009KT P6SM VCTS BKN040CB
     FM010000 28007KT P6SM BKN120=



000
FTUS41 KRNK 302021 AAA
TAFROA
TAF AMD
KROA 302021Z 3020/0118 21009KT P6SM VCTS BKN040CB
     FM010000 28007KT P6SM BKN120=



000
FTUS41 KRNK 301721
TAFLWB
TAF
KLWB 301721Z 3018/0118 23008KT P6SM SCT035 BKN045
     FM302030 25008KT P6SM VCTS BKN040CB
     FM010200 25003KT P6SM SCT040 BKN100
     FM010700 00000KT 5SM BR OVC020
     FM011230 26005KT P6SM SCT045 BKN100=



000
FTUS41 KRNK 301721
TAFBLF
TAF
KBLF 301721Z 3018/0118 26007KT P6SM BKN035
     FM302000 26009KT P6SM VCTS BKN040CB
      TEMPO 3021/3023 3SM TSRA OVC025CB
     FM010000 26007KT P6SM BKN040
     FM010900 27008KT P6SM OVC012
     FM011200 25007KT P6SM SCT013 OVC050=



000
FTUS41 KRNK 301721
TAFDAN
TAF
KDAN 301721Z 3018/0118 VRB04KT P6SM VCTS BKN040CB
     FM302100 23009KT P6SM BKN040
     FM010100 24004KT P6SM BKN050
     FM010700 00000KT 5SM BR SCT050 BKN250=



000
FTUS41 KRNK 301721
TAFBLF
TAF
KBLF 301721Z 3018/0118 26007KT P6SM BKN035
     FM302000 26009KT P6SM VCTS BKN040CB
      TEMPO 3021/3023 3SM TSRA OVC025CB
     FM010000 26007KT P6SM BKN040
     FM010900 27008KT P6SM OVC012
     FM011200 25007KT P6SM SCT013 OVC050=



000
FTUS41 KRNK 301721
TAFLYH
TAF
KLYH 301721Z 3018/0118 21006KT P6SM BKN110
     FM302100 22008KT P6SM BKN040
     FM010400 23003KT P6SM BKN120=



000
FTUS41 KRNK 301721
TAFDAN
TAF
KDAN 301721Z 3018/0118 VRB04KT P6SM VCTS BKN040CB
     FM302100 23009KT P6SM BKN040
     FM010100 24004KT P6SM BKN050
     FM010700 00000KT 5SM BR SCT050 BKN250=



000
FTUS41 KRNK 301721
TAFLYH
TAF
KLYH 301721Z 3018/0118 21006KT P6SM BKN110
     FM302100 22008KT P6SM BKN040
     FM010400 23003KT P6SM BKN120=



000
FTUS41 KRNK 301721
TAFROA
TAF
KROA 301721Z 3018/0118 23007KT P6SM SCT060 BKN120
     FM302100 25009KT P6SM VCTS BKN040CB
     FM010000 28007KT P6SM BKN120=



000
FTUS41 KRNK 301721
TAFLWB
TAF
KLWB 301721Z 3018/0118 23008KT P6SM SCT035 BKN045
     FM302030 25008KT P6SM VCTS BKN040CB
     FM010200 25003KT P6SM SCT040 BKN100
     FM010700 00000KT 5SM BR OVC020
     FM011230 26005KT P6SM SCT045 BKN100=



000
FTUS41 KRNK 301721
TAFBLF
TAF
KBLF 301721Z 3018/0118 26007KT P6SM BKN035
     FM302000 26009KT P6SM VCTS BKN040CB
      TEMPO 3021/3023 3SM TSRA OVC025CB
     FM010000 26007KT P6SM BKN040
     FM010900 27008KT P6SM OVC012
     FM011200 25007KT P6SM SCT013 OVC050=



000
FTUS41 KRNK 301721
TAFROA
TAF
KROA 301721Z 3018/0118 23007KT P6SM SCT060 BKN120
     FM302100 25009KT P6SM VCTS BKN040CB
     FM010000 28007KT P6SM BKN120=



000
FTUS41 KRNK 301721
TAFLWB
TAF
KLWB 301721Z 3018/0118 23008KT P6SM SCT035 BKN045
     FM302030 25008KT P6SM VCTS BKN040CB
     FM010200 25003KT P6SM SCT040 BKN100
     FM010700 00000KT 5SM BR OVC020
     FM011230 26005KT P6SM SCT045 BKN100=



000
FTUS41 KRNK 301721
TAFDAN
TAF
KDAN 301721Z 3018/0118 VRB04KT P6SM VCTS BKN040CB
     FM302100 23009KT P6SM BKN040
     FM010100 24004KT P6SM BKN050
     FM010700 00000KT 5SM BR SCT050 BKN250=



000
FTUS41 KRNK 301721
TAFROA
TAF
KROA 301721Z 3018/0118 23007KT P6SM SCT060 BKN120
     FM302100 25009KT P6SM VCTS BKN040CB
     FM010000 28007KT P6SM BKN120=



000
FTUS41 KRNK 301721
TAFLYH
TAF
KLYH 301721Z 3018/0118 21006KT P6SM BKN110
     FM302100 22008KT P6SM BKN040
     FM010400 23003KT P6SM BKN120=



000
FTUS41 KRNK 301721
TAFROA
TAF
KROA 301721Z 3018/0118 23007KT P6SM SCT060 BKN120
     FM302100 25009KT P6SM VCTS BKN040CB
     FM010000 28007KT P6SM BKN120=



000
FTUS41 KRNK 301721
TAFBLF
TAF
KBLF 301721Z 3018/0118 26007KT P6SM BKN035
     FM302000 26009KT P6SM VCTS BKN040CB
      TEMPO 3021/3023 3SM TSRA OVC025CB
     FM010000 26007KT P6SM BKN040
     FM010900 27008KT P6SM OVC012
     FM011200 25007KT P6SM SCT013 OVC050=



000
FTUS41 KRNK 301721
TAFLWB
TAF
KLWB 301721Z 3018/0118 23008KT P6SM SCT035 BKN045
     FM302030 25008KT P6SM VCTS BKN040CB
     FM010200 25003KT P6SM SCT040 BKN100
     FM010700 00000KT 5SM BR OVC020
     FM011230 26005KT P6SM SCT045 BKN100=



000
FTUS41 KRNK 301721
TAFDAN
TAF
KDAN 301721Z 3018/0118 VRB04KT P6SM VCTS BKN040CB
     FM302100 23009KT P6SM BKN040
     FM010100 24004KT P6SM BKN050
     FM010700 00000KT 5SM BR SCT050 BKN250=



000
FTUS41 KRNK 301721
TAFLYH
TAF
KLYH 301721Z 3018/0118 21006KT P6SM BKN110
     FM302100 22008KT P6SM BKN040
     FM010400 23003KT P6SM BKN120=



000
FTUS41 KRNK 301408 AAA
TAFLWB
TAF AMD
KLWB 301408Z 3014/0112 27007KT P6SM SCT020 BKN030 BKN040
     FM301600 25007KT P6SM BKN050
     FM302000 25008KT P6SM VCTS BKN040CB
     FM010000 25003KT P6SM BKN100
     FM010700 00000KT 5SM BR OVC020=



000
FTUS41 KRNK 301408 AAA
TAFLWB
TAF AMD
KLWB 301408Z 3014/0112 27007KT P6SM SCT020 BKN030 BKN040
     FM301600 25007KT P6SM BKN050
     FM302000 25008KT P6SM VCTS BKN040CB
     FM010000 25003KT P6SM BKN100
     FM010700 00000KT 5SM BR OVC020=



000
FTUS41 KRNK 301134
TAFROA
TAF
KROA 301134Z 3012/0112 28005KT P6SM BKN100
     FM301400 25008KT P6SM SCT050 BKN100
     FM302100 25009KT P6SM VCTS BKN040CB
     FM010100 28007KT P6SM BKN120=



000
FTUS41 KRNK 301134
TAFLYH
TAF
KLYH 301134Z 3012/0112 21003KT P6SM SCT120
     FM301400 22007KT P6SM SCT060
     FM302100 22008KT P6SM VCTS BKN040CB
     FM010200 23003KT P6SM BKN120=



000
FTUS41 KRNK 301134
TAFDAN
TAF
KDAN 301134Z 3012/0112 VRB03KT P6SM SKC
     FM301400 23008KT P6SM SCT060
     FM302200 23009KT P6SM VCTS BKN040CB
     FM010300 24004KT P6SM BKN120=



000
FTUS41 KRNK 301134
TAFLYH
TAF
KLYH 301134Z 3012/0112 21003KT P6SM SCT120
     FM301400 22007KT P6SM SCT060
     FM302100 22008KT P6SM VCTS BKN040CB
     FM010200 23003KT P6SM BKN120=



000
FTUS41 KRNK 301134
TAFROA
TAF
KROA 301134Z 3012/0112 28005KT P6SM BKN100
     FM301400 25008KT P6SM SCT050 BKN100
     FM302100 25009KT P6SM VCTS BKN040CB
     FM010100 28007KT P6SM BKN120=



000
FTUS41 KRNK 301134
TAFLWB
TAF
KLWB 301134Z 3012/0112 00000KT P6SM BKN024 OVC070
     FM301600 25007KT P6SM BKN050
     FM302000 25008KT P6SM VCTS BKN040CB
     FM010000 25003KT P6SM BKN100
     FM010700 00000KT 5SM BR OVC020=



000
FTUS41 KRNK 301134
TAFROA
TAF
KROA 301134Z 3012/0112 28005KT P6SM BKN100
     FM301400 25008KT P6SM SCT050 BKN100
     FM302100 25009KT P6SM VCTS BKN040CB
     FM010100 28007KT P6SM BKN120=



000
FTUS41 KRNK 301134
TAFBLF
TAF
KBLF 301134Z 3012/0112 25008KT P6SM SCT012 OVC025
     FM301600 26012G20KT P6SM SCT030 BKN060
     FM302000 25010G18KT P6SM VCTS BKN040CB
     FM010000 26007KT P6SM BKN100
     FM010900 27008KT P6SM OVC012=



000
FTUS41 KRNK 301134
TAFBLF
TAF
KBLF 301134Z 3012/0112 25008KT P6SM SCT012 OVC025
     FM301600 26012G20KT P6SM SCT030 BKN060
     FM302000 25010G18KT P6SM VCTS BKN040CB
     FM010000 26007KT P6SM BKN100
     FM010900 27008KT P6SM OVC012=



000
FTUS41 KRNK 301134
TAFBLF
TAF
KBLF 301134Z 3012/0112 25008KT P6SM SCT012 OVC025
     FM301600 26012G20KT P6SM SCT030 BKN060
     FM302000 25010G18KT P6SM VCTS BKN040CB
     FM010000 26007KT P6SM BKN100
     FM010900 27008KT P6SM OVC012=



000
FTUS41 KRNK 301134
TAFDAN
TAF
KDAN 301134Z 3012/0112 VRB03KT P6SM SKC
     FM301400 23008KT P6SM SCT060
     FM302200 23009KT P6SM VCTS BKN040CB
     FM010300 24004KT P6SM BKN120=



000
FTUS41 KRNK 301134
TAFLYH
TAF
KLYH 301134Z 3012/0112 21003KT P6SM SCT120
     FM301400 22007KT P6SM SCT060
     FM302100 22008KT P6SM VCTS BKN040CB
     FM010200 23003KT P6SM BKN120=



000
FTUS41 KRNK 301134
TAFLYH
TAF
KLYH 301134Z 3012/0112 21003KT P6SM SCT120
     FM301400 22007KT P6SM SCT060
     FM302100 22008KT P6SM VCTS BKN040CB
     FM010200 23003KT P6SM BKN120=



000
FTUS41 KRNK 301134
TAFDAN
TAF
KDAN 301134Z 3012/0112 VRB03KT P6SM SKC
     FM301400 23008KT P6SM SCT060
     FM302200 23009KT P6SM VCTS BKN040CB
     FM010300 24004KT P6SM BKN120=



000
FTUS41 KRNK 301134
TAFDAN
TAF
KDAN 301134Z 3012/0112 VRB03KT P6SM SKC
     FM301400 23008KT P6SM SCT060
     FM302200 23009KT P6SM VCTS BKN040CB
     FM010300 24004KT P6SM BKN120=



000
FTUS41 KRNK 301134
TAFLWB
TAF
KLWB 301134Z 3012/0112 00000KT P6SM BKN024 OVC070
     FM301600 25007KT P6SM BKN050
     FM302000 25008KT P6SM VCTS BKN040CB
     FM010000 25003KT P6SM BKN100
     FM010700 00000KT 5SM BR OVC020=



000
FTUS41 KRNK 301134
TAFBLF
TAF
KBLF 301134Z 3012/0112 25008KT P6SM SCT012 OVC025
     FM301600 26012G20KT P6SM SCT030 BKN060
     FM302000 25010G18KT P6SM VCTS BKN040CB
     FM010000 26007KT P6SM BKN100
     FM010900 27008KT P6SM OVC012=



000
FTUS41 KRNK 301134
TAFLWB
TAF
KLWB 301134Z 3012/0112 00000KT P6SM BKN024 OVC070
     FM301600 25007KT P6SM BKN050
     FM302000 25008KT P6SM VCTS BKN040CB
     FM010000 25003KT P6SM BKN100
     FM010700 00000KT 5SM BR OVC020=



000
FTUS41 KRNK 301134
TAFROA
TAF
KROA 301134Z 3012/0112 28005KT P6SM BKN100
     FM301400 25008KT P6SM SCT050 BKN100
     FM302100 25009KT P6SM VCTS BKN040CB
     FM010100 28007KT P6SM BKN120=



000
FTUS41 KRNK 301134
TAFLWB
TAF
KLWB 301134Z 3012/0112 00000KT P6SM BKN024 OVC070
     FM301600 25007KT P6SM BKN050
     FM302000 25008KT P6SM VCTS BKN040CB
     FM010000 25003KT P6SM BKN100
     FM010700 00000KT 5SM BR OVC020=



000
FTUS41 KRNK 301002 AAA
TAFLWB
TAF AMD
KLWB 301002Z 3010/0106 00000KT P6SM BKN028 OVC070
      TEMPO 3010/3012 4SM BR
     FM301400 24006KT P6SM BKN050
     FM301900 25009KT P6SM VCTS BKN045CB
     FM010100 25003KT P6SM BKN100=



000
FTUS41 KRNK 301002 AAA
TAFLWB
TAF AMD
KLWB 301002Z 3010/0106 00000KT P6SM BKN028 OVC070
      TEMPO 3010/3012 4SM BR
     FM301400 24006KT P6SM BKN050
     FM301900 25009KT P6SM VCTS BKN045CB
     FM010100 25003KT P6SM BKN100=



000
FTUS41 KRNK 301002 AAB
TAFBLF
TAF AMD
KBLF 301002Z 3010/0106 26008KT P6SM SCT025 OVC070
     FM301100 25007KT P6SM BKN025
     FM301400 26012G20KT P6SM SCT030 BKN060
     FM301900 25010G18KT P6SM VCTS BKN045CB
     FM010100 25006KT P6SM BKN100=



000
FTUS41 KRNK 301002 AAB
TAFBLF
TAF AMD
KBLF 301002Z 3010/0106 26008KT P6SM SCT025 OVC070
     FM301100 25007KT P6SM BKN025
     FM301400 26012G20KT P6SM SCT030 BKN060
     FM301900 25010G18KT P6SM VCTS BKN045CB
     FM010100 25006KT P6SM BKN100=



000
FTUS41 KRNK 300858 AAA
TAFBLF
TAF AMD
KBLF 300858Z 3009/0106 23007KT P6SM -SHRA BKN025 OVC050
     FM301100 25007KT P6SM BKN025
     FM301400 26012G20KT P6SM SCT030 BKN060
     FM301900 25010G18KT P6SM VCTS BKN045CB
     FM010100 25006KT P6SM BKN100=



000
FTUS41 KRNK 300858 AAA
TAFBLF
TAF AMD
KBLF 300858Z 3009/0106 23007KT P6SM -SHRA BKN025 OVC050
     FM301100 25007KT P6SM BKN025
     FM301400 26012G20KT P6SM SCT030 BKN060
     FM301900 25010G18KT P6SM VCTS BKN045CB
     FM010100 25006KT P6SM BKN100=



000
FTUS41 KRNK 300858 AAA
TAFBLF
TAF AMD
KBLF 300858Z 3009/0106 23007KT P6SM -SHRA BKN025 OVC050
     FM301100 25007KT P6SM BKN025
     FM301400 26012G20KT P6SM SCT030 BKN060
     FM301900 25010G18KT P6SM VCTS BKN045CB
     FM010100 25006KT P6SM BKN100=



000
FTUS41 KRNK 300623 AAA
TAFROA
TAF AMD
KROA 300623Z 3006/0106 29006KT P6SM -SHRA OVC070
     FM300800 29003KT P6SM BKN070
     FM301300 25008KT P6SM SCT050 BKN100
     FM302000 23009KT P6SM BKN050
     FM010200 28004KT P6SM BKN120=



000
FTUS41 KRNK 300623 AAA
TAFROA
TAF AMD
KROA 300623Z 3006/0106 29006KT P6SM -SHRA OVC070
     FM300800 29003KT P6SM BKN070
     FM301300 25008KT P6SM SCT050 BKN100
     FM302000 23009KT P6SM BKN050
     FM010200 28004KT P6SM BKN120=



000
FTUS41 KRNK 300623 AAA
TAFROA
TAF AMD
KROA 300623Z 3006/0106 29006KT P6SM -SHRA OVC070
     FM300800 29003KT P6SM BKN070
     FM301300 25008KT P6SM SCT050 BKN100
     FM302000 23009KT P6SM BKN050
     FM010200 28004KT P6SM BKN120=



000
FTUS41 KRNK 300536
TAFLYH
TAF
KLYH 300536Z 3006/0106 00000KT P6SM SKC
     FM301300 22007KT P6SM SCT060
     FM301900 22008KT P6SM BKN060
     FM010200 24003KT P6SM BKN120=



000
FTUS41 KRNK 300536
TAFBLF
TAF
KBLF 300536Z 3006/0106 23009KT P6SM -SHRA SCT040 OVC070
     FM301000 25007KT P6SM BKN035
     FM301400 26012G20KT P6SM SCT030 BKN060
     FM301900 25010G18KT P6SM VCTS BKN045CB
     FM010100 25006KT P6SM BKN100=



000
FTUS41 KRNK 300536
TAFROA
TAF
KROA 300536Z 3006/0106 29003KT P6SM BKN070
     FM301300 25008KT P6SM SCT050 BKN100
     FM302000 23009KT P6SM BKN050
     FM010200 28004KT P6SM BKN120=



000
FTUS41 KRNK 300536
TAFDAN
TAF
KDAN 300536Z 3006/0106 19003KT P6SM SKC
     FM301400 24008KT P6SM SCT060
     FM301900 24009KT P6SM BKN050
     FM010300 24004KT P6SM BKN120=



000
FTUS41 KRNK 300536
TAFLWB
TAF
KLWB 300536Z 3006/0106 00000KT P6SM VCSH SCT030 OVC070
      TEMPO 3010/3012 4SM BR
     FM301400 24006KT P6SM BKN050
     FM301900 25009KT P6SM VCTS BKN045CB
     FM010100 25003KT P6SM BKN100=



000
FTUS41 KRNK 300536
TAFLWB
TAF
KLWB 300536Z 3006/0106 00000KT P6SM VCSH SCT030 OVC070
      TEMPO 3010/3012 4SM BR
     FM301400 24006KT P6SM BKN050
     FM301900 25009KT P6SM VCTS BKN045CB
     FM010100 25003KT P6SM BKN100=



000
FTUS41 KRNK 300536
TAFDAN
TAF
KDAN 300536Z 3006/0106 19003KT P6SM SKC
     FM301400 24008KT P6SM SCT060
     FM301900 24009KT P6SM BKN050
     FM010300 24004KT P6SM BKN120=



000
FTUS41 KRNK 300536
TAFROA
TAF
KROA 300536Z 3006/0106 29003KT P6SM BKN070
     FM301300 25008KT P6SM SCT050 BKN100
     FM302000 23009KT P6SM BKN050
     FM010200 28004KT P6SM BKN120=



000
FTUS41 KRNK 300536
TAFBLF
TAF
KBLF 300536Z 3006/0106 23009KT P6SM -SHRA SCT040 OVC070
     FM301000 25007KT P6SM BKN035
     FM301400 26012G20KT P6SM SCT030 BKN060
     FM301900 25010G18KT P6SM VCTS BKN045CB
     FM010100 25006KT P6SM BKN100=



000
FTUS41 KRNK 300536
TAFLYH
TAF
KLYH 300536Z 3006/0106 00000KT P6SM SKC
     FM301300 22007KT P6SM SCT060
     FM301900 22008KT P6SM BKN060
     FM010200 24003KT P6SM BKN120=



000
FTUS41 KRNK 300405 AAA
TAFLWB
TAF AMD
KLWB 300405Z 3004/3024 24003KT P6SM VCSH SCT050 BKN100
     FM300800 00000KT 5SM BR OVC010
      TEMPO 3009/3012 1/4SM FG OVC001
     FM301300 24004KT 4SM BR BKN030
     FM301500 24006KT P6SM SCT030 BKN050
     FM301900 24007KT P6SM VCTS BKN045CB=



000
FTUS41 KRNK 300405 AAA
TAFLWB
TAF AMD
KLWB 300405Z 3004/3024 24003KT P6SM VCSH SCT050 BKN100
     FM300800 00000KT 5SM BR OVC010
      TEMPO 3009/3012 1/4SM FG OVC001
     FM301300 24004KT 4SM BR BKN030
     FM301500 24006KT P6SM SCT030 BKN050
     FM301900 24007KT P6SM VCTS BKN045CB=



000
FTUS41 KRNK 300405 AAA
TAFLWB
TAF AMD
KLWB 300405Z 3004/3024 24003KT P6SM VCSH SCT050 BKN100
     FM300800 00000KT 5SM BR OVC010
      TEMPO 3009/3012 1/4SM FG OVC001
     FM301300 24004KT 4SM BR BKN030
     FM301500 24006KT P6SM SCT030 BKN050
     FM301900 24007KT P6SM VCTS BKN045CB=



000
FTUS41 KRNK 300405 AAA
TAFLWB
TAF AMD
KLWB 300405Z 3004/3024 24003KT P6SM VCSH SCT050 BKN100
     FM300800 00000KT 5SM BR OVC010
      TEMPO 3009/3012 1/4SM FG OVC001
     FM301300 24004KT 4SM BR BKN030
     FM301500 24006KT P6SM SCT030 BKN050
     FM301900 24007KT P6SM VCTS BKN045CB=



000
FTUS41 KRNK 292321
TAFLYH
TAF
KLYH 292321Z 3000/3024 19006KT P6SM BKN100
     FM300200 19003KT P6SM SCT100
     FM300700 23004KT P6SM FEW035 BKN040
     FM301800 22008KT P6SM SCT060 SCT100=



000
FTUS41 KRNK 292321
TAFBLF
TAF
KBLF 292321Z 3000/3024 20007KT P6SM VCSH BKN040
     FM300400 23009KT P6SM -SHRA VCTS SCT020 BKN035CB
     FM300900 25007KT 5SM BR BKN025
     FM301300 26010KT P6SM VCSH SCT015 BKN035
     FM301900 24009KT P6SM VCTS BKN045CB=



000
FTUS41 KRNK 292321
TAFROA
TAF
KROA 292321Z 3000/3024 19008KT P6SM SCT060 BKN080
     FM300500 27004KT P6SM SCT025 BKN040
     FM301500 23008KT P6SM SCT050 BKN100
     FM301900 19010KT P6SM BKN060=



000
FTUS41 KRNK 292321
TAFDAN
TAF
KDAN 292321Z 3000/3024 17003KT P6SM SCT050 BKN100
     FM301500 24008KT P6SM SCT060=



000
FTUS41 KRNK 292321
TAFLWB
TAF
KLWB 292321Z 3000/3024 21006KT P6SM VCSH BKN045 BKN080
     FM300400 00000KT 5SM SHRA BR VCTS OVC025CB
     FM300800 00000KT 2SM BR OVC010
      TEMPO 3009/3012 1/4SM FG OVC001
     FM301300 24004KT 4SM BR BKN030
     FM301500 24006KT P6SM SCT030 BKN050
     FM301900 24007KT P6SM VCTS BKN045CB=



000
FTUS41 KRNK 292321
TAFLYH
TAF
KLYH 292321Z 3000/3024 19006KT P6SM BKN100
     FM300200 19003KT P6SM SCT100
     FM300700 23004KT P6SM FEW035 BKN040
     FM301800 22008KT P6SM SCT060 SCT100=



000
FTUS41 KRNK 292321
TAFROA
TAF
KROA 292321Z 3000/3024 19008KT P6SM SCT060 BKN080
     FM300500 27004KT P6SM SCT025 BKN040
     FM301500 23008KT P6SM SCT050 BKN100
     FM301900 19010KT P6SM BKN060=



000
FTUS41 KRNK 292321
TAFBLF
TAF
KBLF 292321Z 3000/3024 20007KT P6SM VCSH BKN040
     FM300400 23009KT P6SM -SHRA VCTS SCT020 BKN035CB
     FM300900 25007KT 5SM BR BKN025
     FM301300 26010KT P6SM VCSH SCT015 BKN035
     FM301900 24009KT P6SM VCTS BKN045CB=



000
FTUS41 KRNK 292321
TAFLWB
TAF
KLWB 292321Z 3000/3024 21006KT P6SM VCSH BKN045 BKN080
     FM300400 00000KT 5SM SHRA BR VCTS OVC025CB
     FM300800 00000KT 2SM BR OVC010
      TEMPO 3009/3012 1/4SM FG OVC001
     FM301300 24004KT 4SM BR BKN030
     FM301500 24006KT P6SM SCT030 BKN050
     FM301900 24007KT P6SM VCTS BKN045CB=



000
FTUS41 KRNK 292321
TAFDAN
TAF
KDAN 292321Z 3000/3024 17003KT P6SM SCT050 BKN100
     FM301500 24008KT P6SM SCT060=



000
FTUS41 KRNK 291723
TAFDAN
TAF
KDAN 291723Z 2918/3018 VRB03KT P6SM FEW060
     FM292000 20008KT P6SM SCT060
     FM300000 20002KT P6SM SCT050
     FM301500 24008KT P6SM SCT060=



000
FTUS41 KRNK 291723
TAFROA
TAF
KROA 291723Z 2918/3018 13007KT P6SM BKN050
     FM292200 17008KT P6SM BKN050
     FM300100 20004KT P6SM BKN050
     FM300500 27004KT P6SM SCT025 BKN040
     FM301500 23008KT P6SM SCT050 BKN100=



000
FTUS41 KRNK 291723
TAFBLF
TAF
KBLF 291723Z 2918/3018 24008G16KT P6SM SCT060 BKN100
     FM300000 23009KT P6SM VCSH SCT050 BKN080
     FM300500 23009KT P6SM SCT020 BKN040
     FM300900 25007KT 5SM BR BKN025
     FM301300 26010KT P6SM SCT025 BKN040=



000
FTUS41 KRNK 291723
TAFLYH
TAF
KLYH 291723Z 2918/3018 00000KT P6SM SCT060
     FM292000 18008KT P6SM BKN060
     FM300200 19003KT P6SM SCT100
     FM300700 23004KT P6SM FEW035 BKN040
     FM301700 22008KT P6SM SCT050 BKN100=



000
FTUS41 KRNK 291723
TAFLWB
TAF
KLWB 291723Z 2918/3018 24007KT P6SM BKN050
     FM300000 22003KT P6SM VCSH SCT050 BKN080
     FM300500 00000KT 4SM BR OVC025
     FM300800 00000KT 1SM BR OVC010
     FM301000 00000KT 1/4SM FG OVC001
     FM301300 24003KT 2SM BR OVC001
     FM301400 24004KT 4SM BR BKN030
     FM301500 24006KT P6SM SCT030 BKN050=



000
FTUS41 KRNK 291723
TAFDAN
TAF
KDAN 291723Z 2918/3018 VRB03KT P6SM FEW060
     FM292000 20008KT P6SM SCT060
     FM300000 20002KT P6SM SCT050
     FM301500 24008KT P6SM SCT060=



000
FTUS41 KRNK 291723
TAFLWB
TAF
KLWB 291723Z 2918/3018 24007KT P6SM BKN050
     FM300000 22003KT P6SM VCSH SCT050 BKN080
     FM300500 00000KT 4SM BR OVC025
     FM300800 00000KT 1SM BR OVC010
     FM301000 00000KT 1/4SM FG OVC001
     FM301300 24003KT 2SM BR OVC001
     FM301400 24004KT 4SM BR BKN030
     FM301500 24006KT P6SM SCT030 BKN050=



000
FTUS41 KRNK 291723
TAFROA
TAF
KROA 291723Z 2918/3018 13007KT P6SM BKN050
     FM292200 17008KT P6SM BKN050
     FM300100 20004KT P6SM BKN050
     FM300500 27004KT P6SM SCT025 BKN040
     FM301500 23008KT P6SM SCT050 BKN100=



000
FTUS41 KRNK 291723
TAFLYH
TAF
KLYH 291723Z 2918/3018 00000KT P6SM SCT060
     FM292000 18008KT P6SM BKN060
     FM300200 19003KT P6SM SCT100
     FM300700 23004KT P6SM FEW035 BKN040
     FM301700 22008KT P6SM SCT050 BKN100=



000
FTUS41 KRNK 291723
TAFBLF
TAF
KBLF 291723Z 2918/3018 24008G16KT P6SM SCT060 BKN100
     FM300000 23009KT P6SM VCSH SCT050 BKN080
     FM300500 23009KT P6SM SCT020 BKN040
     FM300900 25007KT 5SM BR BKN025
     FM301300 26010KT P6SM SCT025 BKN040=



000
FTUS41 KRNK 291723
TAFROA
TAF
KROA 291723Z 2918/3018 13007KT P6SM BKN050
     FM292200 17008KT P6SM BKN050
     FM300100 20004KT P6SM BKN050
     FM300500 27004KT P6SM SCT025 BKN040
     FM301500 23008KT P6SM SCT050 BKN100=



000
FTUS41 KRNK 291723
TAFBLF
TAF
KBLF 291723Z 2918/3018 24008G16KT P6SM SCT060 BKN100
     FM300000 23009KT P6SM VCSH SCT050 BKN080
     FM300500 23009KT P6SM SCT020 BKN040
     FM300900 25007KT 5SM BR BKN025
     FM301300 26010KT P6SM SCT025 BKN040=



000
FTUS41 KRNK 291723
TAFLYH
TAF
KLYH 291723Z 2918/3018 00000KT P6SM SCT060
     FM292000 18008KT P6SM BKN060
     FM300200 19003KT P6SM SCT100
     FM300700 23004KT P6SM FEW035 BKN040
     FM301700 22008KT P6SM SCT050 BKN100=



000
FTUS41 KRNK 291723
TAFDAN
TAF
KDAN 291723Z 2918/3018 VRB03KT P6SM FEW060
     FM292000 20008KT P6SM SCT060
     FM300000 20002KT P6SM SCT050
     FM301500 24008KT P6SM SCT060=



000
FTUS41 KRNK 291723
TAFLWB
TAF
KLWB 291723Z 2918/3018 24007KT P6SM BKN050
     FM300000 22003KT P6SM VCSH SCT050 BKN080
     FM300500 00000KT 4SM BR OVC025
     FM300800 00000KT 1SM BR OVC010
     FM301000 00000KT 1/4SM FG OVC001
     FM301300 24003KT 2SM BR OVC001
     FM301400 24004KT 4SM BR BKN030
     FM301500 24006KT P6SM SCT030 BKN050=



000
FTUS41 KRNK 291307 AAA
TAFLWB
TAF AMD
KLWB 291307Z 2913/3012 00000KT 1SM BR OVC001
     FM291430 00000KT 4SM BR SCT001
     FM291500 23005KT P6SM FEW050
     FM300000 20004KT P6SM VCSH OVC060
     FM300800 00000KT 1/4SM FG OVC001=



000
FTUS41 KRNK 291307 AAA
TAFLWB
TAF AMD
KLWB 291307Z 2913/3012 00000KT 1SM BR OVC001
     FM291430 00000KT 4SM BR SCT001
     FM291500 23005KT P6SM FEW050
     FM300000 20004KT P6SM VCSH OVC060
     FM300800 00000KT 1/4SM FG OVC001=



000
FTUS41 KRNK 291307 AAA
TAFLWB
TAF AMD
KLWB 291307Z 2913/3012 00000KT 1SM BR OVC001
     FM291430 00000KT 4SM BR SCT001
     FM291500 23005KT P6SM FEW050
     FM300000 20004KT P6SM VCSH OVC060
     FM300800 00000KT 1/4SM FG OVC001=



000
FTUS41 KRNK 291307 AAA
TAFLWB
TAF AMD
KLWB 291307Z 2913/3012 00000KT 1SM BR OVC001
     FM291430 00000KT 4SM BR SCT001
     FM291500 23005KT P6SM FEW050
     FM300000 20004KT P6SM VCSH OVC060
     FM300800 00000KT 1/4SM FG OVC001=



000
FTUS41 KRNK 291120
TAFLWB
TAF
KLWB 291120Z 2912/3012 02003KT 1/4SM FG OVC001
     FM291300 25004KT P6SM SCT020
     FM291600 22006KT P6SM BKN150
     FM300000 20004KT P6SM VCSH OVC060
     FM300800 00000KT 1/4SM FG OVC001=



000
FTUS41 KRNK 291120
TAFROA
TAF
KROA 291120Z 2912/3012 29003KT P6SM FEW080
     FM291600 18008KT P6SM BKN200
     FM300100 16004KT P6SM OVC100=



000
FTUS41 KRNK 291120
TAFDAN
TAF
KDAN 291120Z 2912/3012 VRB03KT P6SM SKC
     FM291600 20006KT P6SM SCT200
     FM300200 19003KT P6SM BKN150=



000
FTUS41 KRNK 291120
TAFLYH
TAF
KLYH 291120Z 2912/3012 00000KT P6SM SCT070
     FM291500 19007KT P6SM SCT200
     FM300200 20003KT P6SM BKN150=



000
FTUS41 KRNK 291120
TAFROA
TAF
KROA 291120Z 2912/3012 29003KT P6SM FEW080
     FM291600 18008KT P6SM BKN200
     FM300100 16004KT P6SM OVC100=



000
FTUS41 KRNK 291120
TAFDAN
TAF
KDAN 291120Z 2912/3012 VRB03KT P6SM SKC
     FM291600 20006KT P6SM SCT200
     FM300200 19003KT P6SM BKN150=



000
FTUS41 KRNK 291120
TAFLWB
TAF
KLWB 291120Z 2912/3012 02003KT 1/4SM FG OVC001
     FM291300 25004KT P6SM SCT020
     FM291600 22006KT P6SM BKN150
     FM300000 20004KT P6SM VCSH OVC060
     FM300800 00000KT 1/4SM FG OVC001=



000
FTUS41 KRNK 291120
TAFBLF
TAF
KBLF 291120Z 2912/3012 25003KT P6SM SKC
     FM291700 23008KT P6SM BKN150
     FM292300 22009KT P6SM OVC080
     FM300800 25009KT P6SM BKN120=



000
FTUS41 KRNK 291120
TAFBLF
TAF
KBLF 291120Z 2912/3012 25003KT P6SM SKC
     FM291700 23008KT P6SM BKN150
     FM292300 22009KT P6SM OVC080
     FM300800 25009KT P6SM BKN120=



000
FTUS41 KRNK 291120
TAFLYH
TAF
KLYH 291120Z 2912/3012 00000KT P6SM SCT070
     FM291500 19007KT P6SM SCT200
     FM300200 20003KT P6SM BKN150=



000
FTUS41 KRNK 291005 AAB
TAFLWB
TAF AMD
KLWB 291005Z 2910/3006 00000KT 1/4SM FG OVC001
     FM291300 25004KT P6SM SCT050
     FM291600 23006KT P6SM BKN120
     FM300000 20004KT P6SM OVC080=



000
FTUS41 KRNK 291005 AAB
TAFLWB
TAF AMD
KLWB 291005Z 2910/3006 00000KT 1/4SM FG OVC001
     FM291300 25004KT P6SM SCT050
     FM291600 23006KT P6SM BKN120
     FM300000 20004KT P6SM OVC080=



000
FTUS41 KRNK 291005 AAB
TAFLWB
TAF AMD
KLWB 291005Z 2910/3006 00000KT 1/4SM FG OVC001
     FM291300 25004KT P6SM SCT050
     FM291600 23006KT P6SM BKN120
     FM300000 20004KT P6SM OVC080=



000
FTUS41 KRNK 291005 AAB
TAFLWB
TAF AMD
KLWB 291005Z 2910/3006 00000KT 1/4SM FG OVC001
     FM291300 25004KT P6SM SCT050
     FM291600 23006KT P6SM BKN120
     FM300000 20004KT P6SM OVC080=



    US Dept of Commerce
    National Oceanic and Atmospheric Administration
    National Weather Service
    1325 East West Highway
    Silver Spring, MD 20910
    Page Author: NWS Internet Services Team
Disclaimer
Information Quality
Credits
Glossary
Privacy Policy
Freedom of Information Act (FOIA)
About Us
Career Opportunities